createdAt,value
2022-08-26T00:00:04.453Z,9.77
2022-08-26T00:02:42.390Z,10.67
2022-08-26T00:05:12.332Z,9.67
2022-08-26T00:07:41.989Z,9.10
2022-08-26T00:10:14.266Z,9.33
2022-08-26T00:12:44.377Z,10.07
2022-08-26T00:15:19.190Z,9.27
2022-08-26T00:17:50.277Z,9.30
2022-08-26T00:20:24.401Z,9.90
2022-08-26T00:22:56.010Z,10.97
2022-08-26T00:25:26.109Z,10.67
2022-08-26T00:27:56.078Z,9.90
2022-08-26T00:30:31.709Z,9.93
2022-08-26T00:33:01.740Z,11.13
2022-08-26T00:35:33.547Z,10.27
2022-08-26T00:38:04.145Z,11.03
2022-08-26T00:40:36.827Z,11.03
2022-08-26T00:43:09.621Z,11.37
2022-08-26T00:45:49.651Z,11.17
2022-08-26T00:48:22.982Z,11.07
2022-08-26T00:50:57.482Z,11.27
2022-08-26T00:53:31.053Z,10.90
2022-08-26T00:56:06.715Z,11.57
2022-08-26T00:58:37.201Z,10.27
2022-08-26T01:01:09.578Z,10.50
2022-08-26T01:03:40.589Z,10.40
2022-08-26T01:06:13.136Z,11.40
2022-08-26T01:08:43.516Z,11.50
2022-08-26T01:11:15.254Z,10.83
2022-08-26T01:13:47.561Z,11.83
2022-08-26T01:16:19.937Z,10.77
2022-08-26T01:18:50.679Z,10.40
2022-08-26T01:21:29.428Z,10.30
2022-08-26T01:24:02.901Z,11.23
2022-08-26T01:26:35.123Z,10.40
2022-08-26T01:29:09.038Z,11.60
2022-08-26T01:31:46.004Z,11.77
2022-08-26T01:34:20.608Z,11.60
2022-08-26T01:36:51.801Z,11.20
2022-08-26T01:39:24.361Z,10.57
2022-08-26T01:41:58.454Z,13.10
2022-08-26T01:44:37.423Z,12.63
2022-08-26T01:47:09.499Z,11.30
2022-08-26T01:49:40.252Z,11.83
2022-08-26T01:52:12.614Z,13.53
2022-08-26T01:54:46.281Z,12.40
2022-08-26T01:57:21.378Z,14.03
2022-08-26T01:59:52.426Z,14.83
2022-08-26T02:02:22.136Z,11.27
2022-08-26T02:05:00.001Z,13.23
2022-08-26T02:07:30.709Z,12.40
2022-08-26T02:10:07.078Z,14.00
2022-08-26T02:12:37.150Z,12.80
2022-08-26T02:15:12.247Z,13.00
2022-08-26T02:17:47.323Z,12.30
2022-08-26T02:20:20.869Z,12.40
2022-08-26T02:22:50.965Z,12.60
2022-08-26T02:25:28.032Z,12.07
2022-08-26T02:27:58.839Z,13.43
2022-08-26T02:30:32.078Z,13.90
2022-08-26T02:33:03.986Z,14.60
2022-08-26T02:35:36.651Z,13.57
2022-08-26T02:38:09.810Z,12.90
2022-08-26T02:40:44.980Z,11.83
2022-08-26T02:43:15.044Z,13.23
2022-08-26T02:45:45.994Z,11.40
2022-08-26T02:48:18.748Z,12.37
2022-08-26T02:50:49.069Z,12.63
2022-08-26T02:53:25.047Z,11.80
2022-08-26T02:55:57.974Z,12.40
2022-08-26T02:58:29.587Z,13.07
2022-08-26T03:00:59.632Z,13.13
2022-08-26T03:03:32.046Z,12.60
2022-08-26T03:06:02.294Z,13.50
2022-08-26T03:08:32.018Z,13.77
2022-08-26T03:11:04.360Z,12.63
2022-08-26T03:13:36.314Z,13.30
2022-08-26T03:16:07.090Z,13.53
2022-08-26T03:18:37.250Z,13.93
2022-08-26T03:21:11.849Z,12.80
2022-08-26T03:23:43.694Z,13.53
2022-08-26T03:26:17.754Z,14.63
2022-08-26T03:28:59.730Z,13.90
2022-08-26T03:31:29.551Z,13.87
2022-08-26T03:33:59.958Z,14.60
2022-08-26T03:36:29.815Z,13.97
2022-08-26T03:38:59.956Z,14.53
2022-08-26T03:41:32.853Z,13.53
2022-08-26T03:44:02.553Z,14.50
2022-08-26T03:46:34.614Z,13.57
2022-08-26T03:49:05.889Z,14.57
2022-08-26T03:51:38.850Z,15.07
2022-08-26T03:54:10.237Z,15.57
2022-08-26T03:56:42.474Z,14.73
2022-08-26T03:59:16.357Z,15.10
2022-08-26T04:01:46.120Z,14.30
2022-08-26T04:04:18.270Z,15.13
2022-08-26T04:06:52.803Z,14.40
2022-08-26T04:09:23.355Z,16.43
2022-08-26T04:11:58.657Z,15.37
2022-08-26T04:14:31.216Z,15.00
2022-08-26T04:17:04.966Z,15.00
2022-08-26T04:19:35.992Z,15.03
2022-08-26T04:22:05.690Z,13.57
2022-08-26T04:24:36.308Z,15.07
2022-08-26T04:27:10.330Z,14.90
2022-08-26T04:29:41.603Z,13.77
2022-08-26T04:32:11.384Z,14.47
2022-08-26T04:34:41.934Z,15.37
2022-08-26T04:37:11.978Z,14.63
2022-08-26T04:39:41.661Z,15.73
2022-08-26T04:42:14.001Z,15.00
2022-08-26T04:44:43.654Z,15.07
2022-08-26T04:47:13.346Z,14.73
2022-08-26T04:49:43.173Z,13.73
2022-08-26T04:52:13.024Z,16.00
2022-08-26T04:54:42.714Z,14.53
2022-08-26T04:57:16.181Z,15.13
2022-08-26T04:59:45.811Z,15.60
2022-08-26T05:02:15.777Z,15.43
2022-08-26T05:04:45.539Z,16.60
2022-08-26T05:07:15.259Z,15.20
2022-08-26T05:09:47.399Z,15.50
2022-08-26T05:12:20.755Z,15.37
2022-08-26T05:14:50.502Z,15.53
2022-08-26T05:17:21.669Z,15.13
2022-08-26T05:19:52.251Z,15.20
2022-08-26T05:22:22.734Z,14.67
2022-08-26T05:24:52.637Z,15.57
2022-08-26T05:27:25.972Z,16.33
2022-08-26T05:30:00.038Z,16.97
2022-08-26T05:32:31.775Z,14.90
2022-08-26T05:35:01.508Z,16.10
2022-08-26T05:37:32.264Z,16.17
2022-08-26T05:40:02.173Z,16.73
2022-08-26T05:42:36.351Z,16.37
2022-08-26T05:45:07.370Z,15.10
2022-08-26T05:47:43.074Z,14.97
2022-08-26T05:50:13.861Z,15.60
2022-08-26T05:52:46.092Z,15.77
2022-08-26T05:55:23.871Z,14.93
2022-08-26T05:57:57.605Z,16.37
2022-08-26T06:00:28.413Z,15.30
2022-08-26T06:02:58.623Z,14.83
2022-08-26T06:05:35.372Z,14.53
2022-08-26T06:08:16.309Z,14.33
2022-08-26T06:10:50.982Z,13.87
2022-08-26T06:13:30.318Z,14.80
2022-08-26T06:16:08.481Z,15.67
2022-08-26T06:18:42.157Z,14.63
2022-08-26T06:21:20.153Z,13.30
2022-08-26T06:24:04.141Z,13.07
2022-08-26T06:26:36.594Z,13.17
2022-08-26T06:29:24.109Z,13.30
2022-08-26T06:31:56.404Z,12.27
2022-08-26T06:34:29.880Z,11.93
2022-08-26T06:37:03.717Z,12.83
2022-08-26T06:39:34.133Z,13.03
2022-08-26T06:42:07.305Z,12.53
2022-08-26T06:44:41.732Z,13.33
2022-08-26T06:47:15.560Z,13.20
2022-08-26T06:49:46.265Z,12.80
2022-08-26T06:52:22.956Z,13.27
2022-08-26T06:54:54.430Z,12.17
2022-08-26T06:57:25.199Z,11.47
2022-08-26T06:59:57.527Z,11.50
2022-08-26T07:02:28.599Z,11.27
2022-08-26T07:04:59.758Z,11.60
2022-08-26T07:07:29.627Z,10.90
2022-08-26T07:09:59.842Z,10.73
2022-08-26T07:12:29.911Z,11.73
2022-08-26T07:15:03.370Z,10.73
2022-08-26T07:17:35.283Z,11.73
2022-08-26T07:20:07.344Z,10.67
2022-08-26T07:22:43.814Z,11.70
2022-08-26T07:25:13.592Z,11.33
2022-08-26T07:27:43.285Z,10.30
2022-08-26T07:30:17.109Z,10.87
2022-08-26T07:32:46.888Z,11.57
2022-08-26T07:35:16.995Z,10.10
2022-08-26T07:37:47.098Z,10.60
2022-08-26T07:40:16.894Z,11.03
2022-08-26T07:42:47.670Z,9.97
2022-08-26T07:45:22.197Z,10.90
2022-08-26T07:47:53.048Z,10.30
2022-08-26T07:50:47.090Z,10.13
2022-08-26T07:53:14.606Z,10.80
2022-08-26T07:55:47.935Z,10.50
2022-08-26T07:58:18.546Z,9.93
2022-08-26T08:00:51.481Z,10.47
2022-08-26T08:03:27.118Z,9.40
2022-08-26T08:05:56.862Z,9.00
2022-08-26T08:08:29.297Z,10.87
2022-08-26T08:10:59.763Z,9.67
2022-08-26T08:13:29.697Z,10.00
2022-08-26T08:16:01.953Z,10.67
2022-08-26T08:18:31.671Z,9.90
2022-08-26T08:21:21.377Z,8.73
2022-08-26T08:23:55.482Z,9.53
2022-08-26T08:26:27.314Z,8.80
2022-08-26T08:28:59.053Z,9.37
2022-08-26T08:34:25.910Z,9.50
2022-08-26T08:36:56.530Z,8.90
2022-08-26T08:39:26.976Z,9.40
2022-08-26T08:42:31.537Z,9.50
2022-08-26T08:45:04.534Z,8.73
2022-08-26T08:47:42.135Z,9.40
2022-08-26T08:50:24.564Z,8.87
2022-08-26T08:53:05.791Z,7.80
2022-08-26T08:55:46.364Z,9.40
2022-08-26T08:58:21.927Z,7.53
2022-08-26T09:01:00.779Z,8.77
2022-08-26T09:03:56.845Z,9.87
2022-08-26T09:06:30.581Z,8.60
2022-08-26T09:09:02.746Z,8.10
2022-08-26T09:11:33.801Z,8.27
2022-08-26T09:14:03.646Z,7.47
2022-08-26T09:16:43.981Z,9.17
2022-08-26T09:19:24.207Z,7.93
2022-08-26T09:21:58.116Z,7.77
2022-08-26T09:24:32.166Z,8.50
2022-08-26T09:27:01.961Z,8.70
2022-08-26T09:29:36.089Z,8.77
2022-08-26T09:32:24.170Z,7.77
2022-08-26T09:35:03.327Z,8.97
2022-08-26T09:37:40.088Z,8.97
2022-08-26T09:40:20.705Z,8.77
2022-08-26T09:43:09.373Z,7.03
2022-08-26T09:45:40.045Z,8.73
2022-08-26T09:48:11.300Z,9.07
2022-08-26T09:50:57.385Z,7.73
2022-08-26T09:53:30.476Z,8.03
2022-08-26T09:56:18.052Z,7.50
2022-08-26T09:58:50.151Z,8.20
2022-08-26T10:01:32.209Z,8.13
2022-08-26T10:04:10.947Z,8.30
2022-08-26T10:06:59.271Z,7.90
2022-08-26T10:09:31.487Z,8.20
2022-08-26T10:12:06.749Z,10.43
2022-08-26T10:14:48.922Z,8.47
2022-08-26T10:17:32.730Z,8.37
2022-08-26T10:20:22.653Z,8.30
2022-08-26T10:23:02.393Z,8.90
2022-08-26T10:25:37.426Z,7.37
2022-08-26T10:28:14.729Z,9.37
2022-08-26T10:30:49.799Z,8.30
2022-08-26T10:33:20.078Z,6.80
2022-08-26T10:35:54.306Z,8.33
2022-08-26T10:38:32.157Z,8.63
2022-08-26T10:41:10.335Z,7.90
2022-08-26T10:43:45.705Z,8.53
2022-08-26T10:46:27.312Z,7.57
2022-08-26T10:49:01.047Z,8.87
2022-08-26T10:51:38.740Z,7.43
2022-08-26T10:54:18.226Z,8.50
2022-08-26T10:56:58.172Z,7.80
2022-08-26T10:59:43.676Z,8.07
2022-08-26T11:02:24.708Z,7.17
2022-08-26T11:05:00.050Z,7.50
2022-08-26T11:07:39.375Z,7.83
2022-08-26T11:10:34.667Z,8.47
2022-08-26T11:13:08.331Z,8.00
2022-08-26T11:16:01.522Z,7.93
2022-08-26T11:18:56.113Z,7.20
2022-08-26T11:21:54.494Z,7.57
2022-08-26T11:24:54.253Z,7.70
2022-08-26T11:27:56.074Z,8.57
2022-08-26T11:30:55.485Z,7.90
2022-08-26T11:34:01.406Z,8.40
2022-08-26T11:36:42.802Z,8.17
2022-08-26T11:39:21.560Z,7.90
2022-08-26T11:41:53.836Z,6.73
2022-08-26T11:44:25.621Z,6.97
2022-08-26T11:47:01.195Z,7.30
2022-08-26T11:49:33.322Z,8.10
2022-08-26T11:52:22.140Z,9.67
2022-08-26T11:55:06.632Z,10.57
2022-08-26T11:57:38.892Z,9.20
2022-08-26T12:00:12.546Z,9.47
2022-08-26T12:02:46.970Z,8.80
2022-08-26T12:05:21.692Z,9.43
2022-08-26T12:07:54.866Z,10.70
2022-08-26T12:10:31.940Z,12.40
2022-08-26T12:13:03.123Z,12.37
2022-08-26T12:15:34.972Z,11.43
2022-08-26T12:18:28.899Z,9.03
2022-08-26T12:21:02.173Z,8.77
2022-08-26T12:23:43.399Z,9.03
2022-08-26T12:26:22.576Z,10.00
2022-08-26T12:28:57.601Z,11.03
2022-08-26T12:31:34.079Z,13.23
2022-08-26T12:34:17.678Z,11.30
2022-08-26T12:36:50.390Z,12.13
2022-08-26T12:39:29.402Z,10.53
2022-08-26T12:42:01.138Z,12.20
2022-08-26T12:44:39.026Z,11.10
2022-08-26T12:47:12.096Z,10.70
2022-08-26T12:49:47.983Z,11.73
2022-08-26T12:52:30.108Z,10.97
2022-08-26T12:55:03.015Z,9.50
2022-08-26T12:57:36.290Z,11.10
2022-08-26T13:00:42.049Z,10.50
2022-08-26T13:03:34.171Z,11.63
2022-08-26T13:06:31.587Z,12.40
2022-08-26T13:09:05.661Z,13.00
2022-08-26T13:11:37.999Z,12.37
2022-08-26T13:14:11.311Z,12.37
2022-08-26T13:16:43.012Z,12.50
2022-08-26T13:19:15.549Z,9.87
2022-08-26T13:21:53.877Z,6.57
2022-08-26T13:24:28.728Z,5.90
2022-08-26T13:26:58.727Z,5.73
2022-08-26T13:29:28.634Z,5.83
2022-08-26T13:31:59.555Z,4.90
2022-08-26T13:34:29.845Z,4.30
2022-08-26T13:37:02.382Z,4.27
2022-08-26T13:39:32.033Z,4.50
2022-08-26T13:42:01.931Z,5.43
2022-08-26T13:44:32.616Z,5.50
2022-08-26T13:47:02.588Z,5.90
2022-08-26T13:49:33.241Z,5.03
2022-08-26T13:52:06.933Z,5.93
2022-08-26T13:54:36.850Z,6.40
2022-08-26T13:57:06.950Z,5.67
2022-08-26T13:59:36.677Z,6.57
2022-08-26T14:02:07.878Z,5.40
2022-08-26T14:04:39.985Z,5.10
2022-08-26T14:07:16.870Z,4.60
2022-08-26T14:09:47.510Z,5.20
2022-08-26T14:12:19.659Z,4.80
2022-08-26T14:14:50.377Z,5.60
2022-08-26T14:17:23.597Z,5.57
2022-08-26T14:19:53.703Z,5.73
2022-08-26T14:22:27.004Z,5.83
2022-08-26T14:24:58.641Z,6.50
2022-08-26T14:27:28.476Z,6.43
2022-08-26T14:29:59.494Z,6.53
2022-08-26T14:32:32.228Z,6.00
2022-08-26T14:35:01.901Z,5.77
2022-08-26T14:37:34.583Z,7.20
2022-08-26T14:40:05.943Z,6.43
2022-08-26T14:42:35.914Z,6.27
2022-08-26T14:45:11.436Z,6.90
2022-08-26T14:47:41.112Z,6.53
2022-08-26T14:50:12.631Z,7.00
2022-08-26T14:52:59.332Z,6.93
2022-08-26T14:55:29.364Z,5.73
2022-08-26T14:57:59.023Z,6.17
2022-08-26T15:00:29.127Z,6.50
2022-08-26T15:02:58.953Z,6.50
2022-08-26T15:05:28.892Z,6.20
2022-08-26T15:08:02.685Z,8.17
2022-08-26T15:10:33.449Z,7.83
2022-08-26T15:13:05.039Z,8.87
2022-08-26T15:15:35.699Z,8.47
2022-08-26T15:18:06.917Z,8.47
2022-08-26T15:20:37.609Z,8.00
2022-08-26T15:23:11.198Z,9.53
2022-08-26T15:25:41.056Z,8.67
2022-08-26T15:28:11.803Z,8.90
2022-08-26T15:30:43.142Z,9.50
2022-08-26T15:33:15.285Z,9.47
2022-08-26T15:35:46.540Z,10.07
2022-08-26T15:38:18.822Z,10.57
2022-08-26T15:40:48.447Z,11.50
2022-08-26T15:43:28.169Z,8.73
2022-08-26T15:45:58.769Z,8.50
2022-08-26T15:48:29.259Z,8.70
2022-08-26T15:51:01.863Z,9.23
2022-08-26T15:53:36.767Z,8.37
2022-08-26T15:56:06.670Z,9.13
2022-08-26T15:58:37.896Z,7.57
2022-08-26T16:01:07.928Z,8.60
2022-08-26T16:03:37.831Z,9.30
2022-08-26T16:06:08.223Z,10.00
2022-08-26T16:08:42.008Z,11.57
2022-08-26T16:11:11.802Z,10.27
2022-08-26T16:13:41.475Z,10.60
2022-08-26T16:16:11.267Z,11.80
2022-08-26T16:18:42.286Z,10.10
2022-08-26T16:21:14.126Z,10.23
2022-08-26T16:23:47.822Z,10.30
2022-08-26T16:26:20.715Z,11.07
2022-08-26T16:28:50.388Z,10.90
2022-08-26T16:31:21.245Z,10.80
2022-08-26T16:33:51.448Z,10.30
2022-08-26T16:36:21.350Z,10.33
2022-08-26T16:38:56.531Z,9.73
2022-08-26T16:41:28.016Z,10.50
2022-08-26T16:43:58.683Z,10.77
2022-08-26T16:46:31.552Z,10.67
2022-08-26T16:49:03.967Z,10.50
2022-08-26T16:51:37.822Z,11.13
2022-08-26T16:54:11.332Z,10.60
2022-08-26T16:56:41.633Z,7.50
2022-08-26T16:59:13.549Z,7.30
2022-08-26T17:01:43.233Z,6.17
2022-08-26T17:04:13.905Z,7.47
2022-08-26T17:06:43.695Z,5.83
2022-08-26T17:09:17.128Z,6.20
2022-08-26T17:11:47.832Z,6.57
2022-08-26T17:14:17.484Z,6.33
2022-08-26T17:16:51.133Z,7.70
2022-08-26T17:19:21.710Z,7.00
2022-08-26T17:21:52.327Z,7.10
2022-08-26T17:24:24.554Z,6.83
2022-08-26T17:26:55.629Z,7.30
2022-08-26T17:29:26.524Z,7.70
2022-08-26T17:31:56.435Z,7.30
2022-08-26T17:34:26.599Z,7.17
2022-08-26T17:36:57.492Z,6.30
2022-08-26T17:39:29.651Z,6.53
2022-08-26T17:42:06.074Z,6.87
2022-08-26T17:44:36.737Z,6.30
2022-08-26T17:47:08.316Z,6.90
2022-08-26T17:49:39.031Z,6.53
2022-08-26T17:52:11.668Z,8.20
2022-08-26T17:54:44.159Z,7.87
2022-08-26T17:57:13.793Z,9.40
2022-08-26T17:59:43.609Z,8.23
2022-08-26T18:02:13.240Z,9.30
2022-08-26T18:04:43.839Z,10.10
2022-08-26T18:07:13.884Z,9.33
2022-08-26T18:09:46.423Z,10.63
2022-08-26T18:12:17.839Z,11.37
2022-08-26T18:14:48.503Z,11.17
2022-08-26T18:17:19.399Z,10.77
2022-08-26T18:19:50.181Z,11.00
2022-08-26T18:22:21.885Z,10.33
2022-08-26T18:24:59.230Z,9.57
2022-08-26T18:27:30.197Z,10.27
2022-08-26T18:30:00.062Z,11.17
2022-08-26T18:32:31.652Z,11.50
2022-08-26T18:35:02.451Z,11.27
2022-08-26T18:37:34.231Z,11.90
2022-08-26T18:40:07.295Z,12.90
2022-08-26T18:42:37.506Z,13.30
2022-08-26T18:45:08.853Z,14.53
2022-08-26T18:47:39.534Z,13.70
2022-08-26T18:50:11.675Z,15.17
2022-08-26T18:52:42.273Z,16.67
2022-08-26T18:55:14.444Z,19.53
2022-08-26T18:57:47.220Z,19.20
2022-08-26T19:00:17.770Z,19.95
2022-08-26T19:02:51.902Z,19.73
2022-08-26T19:05:25.536Z,19.90
2022-08-26T19:07:57.179Z,20.20
2022-08-26T19:10:32.826Z,19.30
2022-08-26T19:13:03.653Z,19.70
2022-08-26T19:15:40.346Z,20.00
2022-08-26T19:18:11.382Z,21.20
2022-08-26T19:20:46.416Z,21.23
2022-08-26T19:23:31.299Z,21.13
2022-08-26T19:26:09.019Z,21.03
2022-08-26T19:28:42.888Z,20.23
2022-08-26T19:31:15.598Z,20.97
2022-08-26T19:33:46.634Z,22.30
2022-08-26T19:36:18.573Z,21.30
2022-08-26T19:38:51.148Z,20.10
2022-08-26T19:41:36.802Z,21.10
2022-08-26T19:44:12.948Z,21.07
2022-08-26T19:46:44.533Z,20.83
2022-08-26T19:49:14.140Z,18.10
2022-08-26T19:51:43.755Z,17.17
2022-08-26T19:54:14.382Z,13.13
2022-08-26T19:56:49.597Z,11.70
2022-08-26T19:59:20.039Z,8.30
2022-08-26T20:02:00.888Z,7.70
2022-08-26T20:04:31.244Z,7.77
2022-08-26T20:07:01.998Z,8.13
2022-08-26T20:09:34.038Z,6.23
2022-08-26T20:12:09.593Z,6.53
2022-08-26T20:14:39.451Z,6.43
2022-08-26T20:17:09.442Z,7.00
2022-08-26T20:19:52.882Z,6.60
2022-08-26T20:22:23.461Z,6.50
2022-08-26T20:24:54.455Z,7.07
2022-08-26T20:27:35.555Z,6.93
2022-08-26T20:30:10.438Z,6.10
2022-08-26T20:32:42.650Z,6.60
2022-08-26T20:35:14.904Z,6.07
2022-08-26T20:37:45.446Z,6.53
2022-08-26T20:40:17.493Z,5.73
2022-08-26T20:42:49.659Z,4.97
2022-08-26T20:45:19.478Z,4.83
2022-08-26T20:47:50.338Z,5.25
2022-08-26T20:50:21.065Z,5.03
2022-08-26T20:52:50.624Z,5.27
2022-08-26T20:55:20.268Z,4.40
2022-08-26T20:57:53.335Z,4.60
2022-08-26T21:00:27.088Z,4.80
2022-08-26T21:02:59.518Z,5.40
2022-08-26T21:05:29.492Z,5.20
2022-08-26T21:08:00.057Z,4.67
2022-08-26T21:10:31.486Z,4.83
2022-08-26T21:13:03.754Z,5.30
2022-08-26T21:15:34.535Z,4.70
2022-08-26T21:18:04.206Z,5.90
2022-08-26T21:20:35.186Z,6.10
2022-08-26T21:23:06.034Z,5.90
2022-08-26T21:25:36.662Z,5.03
2022-08-26T21:28:10.121Z,5.10
2022-08-26T21:30:41.672Z,5.20
2022-08-26T21:33:12.419Z,5.60
2022-08-26T21:35:42.054Z,5.30
2022-08-26T21:38:11.789Z,5.00
2022-08-26T21:40:41.508Z,4.07
2022-08-26T21:43:25.967Z,5.60
2022-08-26T21:46:12.612Z,5.00
2022-08-26T21:48:47.696Z,4.80
2022-08-26T21:51:22.307Z,5.70
2022-08-26T21:53:52.973Z,5.43
2022-08-26T21:56:25.481Z,5.23
2022-08-26T21:58:59.657Z,5.10
2022-08-26T22:01:32.525Z,5.20
2022-08-26T22:04:03.839Z,5.23
2022-08-26T22:06:36.147Z,5.80
2022-08-26T22:09:06.963Z,5.30
2022-08-26T22:11:37.881Z,6.17
2022-08-26T22:14:10.108Z,5.90
2022-08-26T22:16:39.768Z,5.50
2022-08-26T22:19:13.674Z,5.77
2022-08-26T22:21:46.885Z,6.03
2022-08-26T22:24:16.426Z,5.60
2022-08-26T22:26:46.126Z,5.10
2022-08-26T22:29:18.316Z,5.43
2022-08-26T22:31:48.402Z,5.70
2022-08-26T22:34:20.729Z,5.93
2022-08-26T22:36:51.891Z,5.53
2022-08-26T22:39:24.585Z,4.63
2022-08-26T22:41:55.263Z,5.70
2022-08-26T22:44:27.432Z,5.43
2022-08-26T22:46:57.036Z,5.70
2022-08-26T22:49:27.019Z,5.47
2022-08-26T22:51:56.780Z,6.30
2022-08-26T22:54:26.543Z,5.10
2022-08-26T22:56:56.064Z,4.80
2022-08-26T22:59:28.197Z,6.10
2022-08-26T23:01:57.739Z,6.13
2022-08-26T23:04:27.307Z,5.47
2022-08-26T23:06:57.001Z,4.93
2022-08-26T23:09:26.578Z,5.40
2022-08-26T23:11:56.605Z,5.20
2022-08-26T23:14:29.119Z,5.70
2022-08-26T23:16:58.804Z,5.53
2022-08-26T23:19:28.430Z,5.50
2022-08-26T23:21:58.126Z,5.80
2022-08-26T23:24:27.687Z,5.63
2022-08-26T23:26:57.253Z,5.50
2022-08-26T23:29:30.279Z,6.23
2022-08-26T23:32:00.338Z,4.87
2022-08-26T23:34:42.658Z,5.43
2022-08-26T23:37:12.319Z,5.60
2022-08-26T23:39:41.934Z,6.40
2022-08-26T23:42:12.458Z,5.73
2022-08-26T23:44:44.722Z,5.97
2022-08-26T23:47:15.571Z,5.87
2022-08-26T23:49:45.317Z,5.90
2022-08-26T23:52:27.432Z,6.90
2022-08-26T23:54:57.265Z,6.90
2022-08-26T23:57:28.289Z,7.10
